sensor_id;sensor_type;location;lat;lon;timestamp;pressure;altitude;pressure_sealevel;temperature;humidity
20156;BME280;10238;49.556;10.956;2023-06-22T00:01:45;98425.06;;;19.19;100.00
20156;BME280;10238;49.556;10.956;2023-06-22T00:04:35;98424.44;;;19.17;100.00
20156;BME280;10238;49.556;10.956;2023-06-22T00:07:22;98420.31;;;19.15;100.00
20156;BME280;10238;49.556;10.956;2023-06-22T00:10:10;98425.06;;;19.19;100.00
20156;BME280;10238;49.556;10.956;2023-06-22T00:12:58;98416.56;;;19.16;100.00
20156;BME280;10238;49.556;10.956;2023-06-22T00:15:46;98415.94;;;19.07;100.00
20156;BME280;10238;49.556;10.956;2023-06-22T00:18:34;98422.78;;;19.03;100.00
20156;BME280;10238;49.556;10.956;2023-06-22T00:21:23;98421.53;;;18.99;100.00
20156;BME280;10238;49.556;10.956;2023-06-22T00:24:10;98432.72;;;18.96;100.00
20156;BME280;10238;49.556;10.956;2023-06-22T00:26:57;98431.69;;;18.97;100.00
20156;BME280;10238;49.556;10.956;2023-06-22T00:29:45;98438.31;;;18.95;100.00
20156;BME280;10238;49.556;10.956;2023-06-22T00:32:32;98442.25;;;18.92;100.00
20156;BME280;10238;49.556;10.956;2023-06-22T00:35:20;98451.38;;;18.91;100.00
20156;BME280;10238;49.556;10.956;2023-06-22T00:38:10;98456.75;;;18.91;100.00
20156;BME280;10238;49.556;10.956;2023-06-22T00:40:57;98468.38;;;18.92;100.00
20156;BME280;10238;49.556;10.956;2023-06-22T00:43:45;98472.09;;;18.84;100.00
20156;BME280;10238;49.556;10.956;2023-06-22T00:46:33;98467.50;;;18.78;100.00
20156;BME280;10238;49.556;10.956;2023-06-22T00:49:21;98468.13;;;18.74;100.00
20156;BME280;10238;49.556;10.956;2023-06-22T00:52:35;98478.66;;;18.69;100.00
20156;BME280;10238;49.556;10.956;2023-06-22T00:55:25;98482.59;;;18.66;100.00
20156;BME280;10238;49.556;10.956;2023-06-22T00:58:13;98477.84;;;18.68;100.00
20156;BME280;10238;49.556;10.956;2023-06-22T01:01:01;98471.59;;;18.61;100.00
20156;BME280;10238;49.556;10.956;2023-06-22T01:03:49;98465.38;;;18.61;100.00
20156;BME280;10238;49.556;10.956;2023-06-22T01:06:49;98452.97;;;18.66;100.00
20156;BME280;10238;49.556;10.956;2023-06-22T01:09:49;98437.63;;;18.60;100.00
20156;BME280;10238;49.556;10.956;2023-06-22T01:12:45;98431.59;;;18.52;100.00
20156;BME280;10238;49.556;10.956;2023-06-22T01:15:39;98409.81;;;18.47;100.00
20156;BME280;10238;49.556;10.956;2023-06-22T01:18:30;98400.31;;;18.44;100.00
20156;BME280;10238;49.556;10.956;2023-06-22T01:21:22;98392.63;;;18.41;100.00
20156;BME280;10238;49.556;10.956;2023-06-22T01:24:22;98370.50;;;18.39;100.00
20156;BME280;10238;49.556;10.956;2023-06-22T01:27:28;98368.00;;;18.38;100.00
20156;BME280;10238;49.556;10.956;2023-06-22T01:30:20;98362.16;;;18.34;100.00
20156;BME280;10238;49.556;10.956;2023-06-22T01:33:11;98364.19;;;18.32;100.00
20156;BME280;10238;49.556;10.956;2023-06-22T01:36:01;98371.66;;;18.30;100.00
20156;BME280;10238;49.556;10.956;2023-06-22T01:38:52;98373.72;;;18.28;100.00
20156;BME280;10238;49.556;10.956;2023-06-22T01:41:43;98383.84;;;18.26;100.00
20156;BME280;10238;49.556;10.956;2023-06-22T01:44:31;98385.72;;;18.26;100.00
20156;BME280;10238;49.556;10.956;2023-06-22T01:47:21;98402.28;;;18.23;100.00
20156;BME280;10238;49.556;10.956;2023-06-22T01:50:11;98397.50;;;18.18;100.00
20156;BME280;10238;49.556;10.956;2023-06-22T01:52:59;98395.22;;;18.15;100.00
20156;BME280;10238;49.556;10.956;2023-06-22T01:55:46;98401.84;;;18.13;100.00
20156;BME280;10238;49.556;10.956;2023-06-22T01:58:37;98398.09;;;18.14;100.00
20156;BME280;10238;49.556;10.956;2023-06-22T02:01:36;98403.47;;;18.14;100.00
20156;BME280;10238;49.556;10.956;2023-06-22T02:04:34;98411.72;;;18.06;100.00
20156;BME280;10238;49.556;10.956;2023-06-22T02:07:29;98421.66;;;18.05;100.00
20156;BME280;10238;49.556;10.956;2023-06-22T02:10:21;98428.47;;;18.01;100.00
20156;BME280;10238;49.556;10.956;2023-06-22T02:13:11;98431.16;;;18.01;100.00
20156;BME280;10238;49.556;10.956;2023-06-22T02:16:01;98421.00;;;17.97;100.00
20156;BME280;10238;49.556;10.956;2023-06-22T02:18:51;98424.91;;;17.94;100.00
20156;BME280;10238;49.556;10.956;2023-06-22T02:21:40;98422.41;;;17.93;100.00
20156;BME280;10238;49.556;10.956;2023-06-22T02:24:28;98412.88;;;17.90;100.00
20156;BME280;10238;49.556;10.956;2023-06-22T02:27:17;98404.59;;;17.85;100.00
20156;BME280;10238;49.556;10.956;2023-06-22T02:30:07;98418.66;;;17.81;100.00
20156;BME280;10238;49.556;10.956;2023-06-22T02:32:54;98419.84;;;17.78;100.00
20156;BME280;10238;49.556;10.956;2023-06-22T02:35:45;98442.41;;;17.77;100.00
20156;BME280;10238;49.556;10.956;2023-06-22T02:38:36;98484.25;;;17.86;100.00
20156;BME280;10238;49.556;10.956;2023-06-22T02:41:24;98522.66;;;18.08;100.00
20156;BME280;10238;49.556;10.956;2023-06-22T02:44:11;98576.38;;;18.22;100.00
20156;BME280;10238;49.556;10.956;2023-06-22T02:46:59;98587.78;;;18.31;100.00
20156;BME280;10238;49.556;10.956;2023-06-22T02:49:46;98580.16;;;18.34;100.00
20156;BME280;10238;49.556;10.956;2023-06-22T02:52:35;98575.47;;;18.36;100.00
20156;BME280;10238;49.556;10.956;2023-06-22T02:55:24;98563.38;;;18.32;100.00
20156;BME280;10238;49.556;10.956;2023-06-22T02:58:11;98554.50;;;18.32;100.00
20156;BME280;10238;49.556;10.956;2023-06-22T03:00:59;98555.09;;;18.27;100.00
20156;BME280;10238;49.556;10.956;2023-06-22T03:03:51;98555.94;;;18.34;100.00
20156;BME280;10238;49.556;10.956;2023-06-22T03:06:39;98556.78;;;18.35;100.00
20156;BME280;10238;49.556;10.956;2023-06-22T03:09:27;98545.31;;;18.26;100.00
20156;BME280;10238;49.556;10.956;2023-06-22T03:12:17;98533.09;;;18.17;100.00
20156;BME280;10238;49.556;10.956;2023-06-22T03:15:06;98524.13;;;18.10;100.00
20156;BME280;10238;49.556;10.956;2023-06-22T03:17:54;98522.66;;;18.08;100.00
20156;BME280;10238;49.556;10.956;2023-06-22T03:20:42;98513.13;;;18.05;100.00
20156;BME280;10238;49.556;10.956;2023-06-22T03:23:30;98506.91;;;18.05;100.00
20156;BME280;10238;49.556;10.956;2023-06-22T03:26:18;98515.81;;;18.05;100.00
20156;BME280;10238;49.556;10.956;2023-06-22T03:29:07;98504.41;;;18.03;100.00
20156;BME280;10238;49.556;10.956;2023-06-22T03:31:54;98490.34;;;18.01;100.00
20156;BME280;10238;49.556;10.956;2023-06-22T03:34:42;98488.28;;;18.03;100.00
20156;BME280;10238;49.556;10.956;2023-06-22T03:37:33;98490.56;;;18.06;100.00
20156;BME280;10238;49.556;10.956;2023-06-22T03:40:21;98481.47;;;18.07;100.00
20156;BME280;10238;49.556;10.956;2023-06-22T03:43:15;98484.97;;;18.01;100.00
20156;BME280;10238;49.556;10.956;2023-06-22T03:46:03;98474.81;;;18.03;100.00
20156;BME280;10238;49.556;10.956;2023-06-22T03:48:52;98464.31;;;18.08;100.00
20156;BME280;10238;49.556;10.956;2023-06-22T03:51:39;98463.06;;;18.04;100.00
20156;BME280;10238;49.556;10.956;2023-06-22T03:54:28;98449.19;;;18.07;100.00
20156;BME280;10238;49.556;10.956;2023-06-22T03:57:15;98445.28;;;18.16;100.00
20156;BME280;10238;49.556;10.956;2023-06-22T04:00:04;98454.34;;;18.09;100.00
20156;BME280;10238;49.556;10.956;2023-06-22T04:02:55;98436.97;;;18.05;100.00
20156;BME280;10238;49.556;10.956;2023-06-22T04:05:44;98426.00;;;18.06;100.00
20156;BME280;10238;49.556;10.956;2023-06-22T04:08:32;98427.25;;;18.10;100.00
20156;BME280;10238;49.556;10.956;2023-06-22T04:11:19;98437.63;;;18.13;100.00
20156;BME280;10238;49.556;10.956;2023-06-22T04:14:09;98442.38;;;18.11;100.00
20156;BME280;10238;49.556;10.956;2023-06-22T04:16:57;98430.97;;;18.09;100.00
20156;BME280;10238;49.556;10.956;2023-06-22T04:19:46;98427.94;;;18.19;100.00
20156;BME280;10238;49.556;10.956;2023-06-22T04:22:34;98416.13;;;18.20;100.00
20156;BME280;10238;49.556;10.956;2023-06-22T04:25:22;98430.88;;;18.30;100.00
20156;BME280;10238;49.556;10.956;2023-06-22T04:28:36;98432.69;;;18.23;100.00
20156;BME280;10238;49.556;10.956;2023-06-22T04:31:23;98409.34;;;18.30;100.00
20156;BME280;10238;49.556;10.956;2023-06-22T04:34:13;98399.81;;;18.34;100.00
20156;BME280;10238;49.556;10.956;2023-06-22T04:37:04;98417.69;;;18.48;100.00
20156;BME280;10238;49.556;10.956;2023-06-22T04:39:52;98430.16;;;18.49;100.00
20156;BME280;10238;49.556;10.956;2023-06-22T04:42:41;98418.09;;;18.45;100.00
20156;BME280;10238;49.556;10.956;2023-06-22T04:45:40;98396.78;;;18.44;100.00
20156;BME280;10238;49.556;10.956;2023-06-22T04:48:28;98393.91;;;18.58;100.00
20156;BME280;10238;49.556;10.956;2023-06-22T04:51:22;98402.63;;;18.54;100.00
20156;BME280;10238;49.556;10.956;2023-06-22T04:54:17;98397.44;;;18.52;100.00
20156;BME280;10238;49.556;10.956;2023-06-22T04:57:07;98397.03;;;18.55;100.00
20156;BME280;10238;49.556;10.956;2023-06-22T04:59:57;98401.41;;;18.69;100.00
20156;BME280;10238;49.556;10.956;2023-06-22T05:02:48;98412.41;;;18.74;100.00
20156;BME280;10238;49.556;10.956;2023-06-22T05:05:37;98416.72;;;18.62;100.00
20156;BME280;10238;49.556;10.956;2023-06-22T05:08:27;98409.25;;;18.77;100.00
20156;BME280;10238;49.556;10.956;2023-06-22T05:11:16;98413.63;;;18.85;100.00
20156;BME280;10238;49.556;10.956;2023-06-22T05:14:05;98404.53;;;18.92;100.00
20156;BME280;10238;49.556;10.956;2023-06-22T05:17:10;98401.22;;;19.10;100.00
20156;BME280;10238;49.556;10.956;2023-06-22T05:20:02;98399.78;;;19.20;100.00
20156;BME280;10238;49.556;10.956;2023-06-22T05:23:04;98400.63;;;19.34;100.00
20156;BME280;10238;49.556;10.956;2023-06-22T05:25:52;98396.28;;;19.46;100.00
20156;BME280;10238;49.556;10.956;2023-06-22T05:28:43;98385.03;;;19.56;100.00
20156;BME280;10238;49.556;10.956;2023-06-22T05:31:39;98398.28;;;19.70;100.00
20156;BME280;10238;49.556;10.956;2023-06-22T05:34:28;98389.94;;;19.85;100.00
20156;BME280;10238;49.556;10.956;2023-06-22T05:37:15;98396.97;;;19.99;100.00
20156;BME280;10238;49.556;10.956;2023-06-22T05:40:05;98406.06;;;20.17;100.00
20156;BME280;10238;49.556;10.956;2023-06-22T05:42:53;98396.88;;;20.25;100.00
20156;BME280;10238;49.556;10.956;2023-06-22T05:45:42;98386.44;;;20.35;100.00
20156;BME280;10238;49.556;10.956;2023-06-22T05:48:31;98397.97;;;20.55;100.00
20156;BME280;10238;49.556;10.956;2023-06-22T05:51:18;98388.97;;;20.67;100.00
20156;BME280;10238;49.556;10.956;2023-06-22T05:54:06;98389.69;;;20.81;100.00
20156;BME280;10238;49.556;10.956;2023-06-22T05:56:54;98381.06;;;20.97;100.00
20156;BME280;10238;49.556;10.956;2023-06-22T05:59:42;98371.81;;;21.11;100.00
20156;BME280;10238;49.556;10.956;2023-06-22T06:02:31;98370.50;;;21.20;100.00
20156;BME280;10238;49.556;10.956;2023-06-22T06:05:20;98372.78;;;21.41;100.00
20156;BME280;10238;49.556;10.956;2023-06-22T06:08:10;98377.75;;;21.44;100.00
20156;BME280;10238;49.556;10.956;2023-06-22T06:10:58;98372.66;;;21.54;100.00
20156;BME280;10238;49.556;10.956;2023-06-22T06:13:46;98370.63;;;21.74;100.00
20156;BME280;10238;49.556;10.956;2023-06-22T06:16:34;98369.41;;;21.88;100.00
20156;BME280;10238;49.556;10.956;2023-06-22T06:19:23;98360.91;;;22.03;100.00
20156;BME280;10238;49.556;10.956;2023-06-22T06:22:14;98355.94;;;22.18;100.00
20156;BME280;10238;49.556;10.956;2023-06-22T06:25:01;98351.41;;;22.30;100.00
20156;BME280;10238;49.556;10.956;2023-06-22T06:27:51;98346.13;;;22.46;100.00
20156;BME280;10238;49.556;10.956;2023-06-22T06:30:41;98345.19;;;22.59;100.00
20156;BME280;10238;49.556;10.956;2023-06-22T06:33:28;98336.38;;;22.75;100.00
20156;BME280;10238;49.556;10.956;2023-06-22T06:36:19;98321.41;;;22.84;100.00
20156;BME280;10238;49.556;10.956;2023-06-22T06:39:32;98324.63;;;23.04;100.00
20156;BME280;10238;49.556;10.956;2023-06-22T06:42:19;98326.56;;;23.26;100.00
20156;BME280;10238;49.556;10.956;2023-06-22T06:45:10;98317.59;;;23.49;100.00
20156;BME280;10238;49.556;10.956;2023-06-22T06:47:58;98316.25;;;23.63;100.00
20156;BME280;10238;49.556;10.956;2023-06-22T06:50:49;98311.13;;;23.90;100.00
20156;BME280;10238;49.556;10.956;2023-06-22T06:53:44;98299.34;;;23.96;100.00
20156;BME280;10238;49.556;10.956;2023-06-22T06:56:32;98296.78;;;24.17;100.00
20156;BME280;10238;49.556;10.956;2023-06-22T06:59:20;98291.88;;;24.31;100.00
20156;BME280;10238;49.556;10.956;2023-06-22T07:02:08;98292.94;;;24.58;100.00
20156;BME280;10238;49.556;10.956;2023-06-22T07:04:55;98281.53;;;24.61;100.00
20156;BME280;10238;49.556;10.956;2023-06-22T07:07:43;98275.66;;;24.64;100.00
20156;BME280;10238;49.556;10.956;2023-06-22T07:10:32;98277.47;;;24.75;100.00
20156;BME280;10238;49.556;10.956;2023-06-22T07:13:20;98274.53;;;24.76;100.00
20156;BME280;10238;49.556;10.956;2023-06-22T07:16:07;98275.72;;;25.02;100.00
20156;BME280;10238;49.556;10.956;2023-06-22T07:18:55;98270.78;;;25.32;100.00
20156;BME280;10238;49.556;10.956;2023-06-22T07:21:43;98270.94;;;25.42;100.00
20156;BME280;10238;49.556;10.956;2023-06-22T07:24:30;98267.22;;;25.48;100.00
20156;BME280;10238;49.556;10.956;2023-06-22T07:27:20;98263.81;;;25.79;100.00
20156;BME280;10238;49.556;10.956;2023-06-22T07:30:09;98266.06;;;26.09;100.00
20156;BME280;10238;49.556;10.956;2023-06-22T07:32:58;98263.59;;;25.86;100.00
20156;BME280;10238;49.556;10.956;2023-06-22T07:35:49;98261.38;;;26.04;100.00
20156;BME280;10238;49.556;10.956;2023-06-22T07:38:42;98253.72;;;26.49;100.00
20156;BME280;10238;49.556;10.956;2023-06-22T07:41:31;98245.66;;;26.64;100.00
20156;BME280;10238;49.556;10.956;2023-06-22T07:44:26;98241.63;;;26.40;100.00
20156;BME280;10238;49.556;10.956;2023-06-22T07:47:14;98236.09;;;26.35;100.00
20156;BME280;10238;49.556;10.956;2023-06-22T07:50:05;98235.91;;;26.68;100.00
20156;BME280;10238;49.556;10.956;2023-06-22T07:52:53;98244.38;;;27.08;100.00
20156;BME280;10238;49.556;10.956;2023-06-22T07:55:41;98228.63;;;27.67;100.00
20156;BME280;10238;49.556;10.956;2023-06-22T07:58:29;98228.28;;;28.10;100.00
20156;BME280;10238;49.556;10.956;2023-06-22T08:01:17;98226.41;;;28.41;100.00
20156;BME280;10238;49.556;10.956;2023-06-22T08:04:07;98221.00;;;28.61;100.00
20156;BME280;10238;49.556;10.956;2023-06-22T08:06:55;98222.88;;;28.70;100.00
20156;BME280;10238;49.556;10.956;2023-06-22T08:09:48;98227.53;;;29.10;100.00
20156;BME280;10238;49.556;10.956;2023-06-22T08:12:36;98221.53;;;28.78;95.20
20156;BME280;10238;49.556;10.956;2023-06-22T08:15:25;98236.31;;;29.17;100.00
20156;BME280;10238;49.556;10.956;2023-06-22T08:18:15;98233.25;;;29.34;100.00
20156;BME280;10238;49.556;10.956;2023-06-22T08:21:03;98224.16;;;29.68;100.00
20156;BME280;10238;49.556;10.956;2023-06-22T08:23:51;98212.94;;;30.13;100.00
20156;BME280;10238;49.556;10.956;2023-06-22T08:26:39;98203.69;;;30.04;86.86
20156;BME280;10238;49.556;10.956;2023-06-22T08:29:27;98211.00;;;30.14;100.00
20156;BME280;10238;49.556;10.956;2023-06-22T08:32:18;98213.47;;;30.15;100.00
20156;BME280;10238;49.556;10.956;2023-06-22T08:35:08;98206.47;;;30.43;95.68
20156;BME280;10238;49.556;10.956;2023-06-22T08:37:56;98215.88;;;30.70;91.27
20156;BME280;10238;49.556;10.956;2023-06-22T08:40:44;98204.09;;;29.78;83.84
20156;BME280;10238;49.556;10.956;2023-06-22T08:43:32;98207.47;;;30.08;98.00
20156;BME280;10238;49.556;10.956;2023-06-22T08:46:19;98207.94;;;30.30;87.54
20156;BME280;10238;49.556;10.956;2023-06-22T08:49:09;98200.78;;;30.73;96.86
20156;BME280;10238;49.556;10.956;2023-06-22T08:51:58;98196.28;;;31.10;79.80
20156;BME280;10238;49.556;10.956;2023-06-22T08:54:46;98193.00;;;30.46;76.76
20156;BME280;10238;49.556;10.956;2023-06-22T08:57:34;98194.63;;;30.04;80.22
20156;BME280;10238;49.556;10.956;2023-06-22T09:00:25;98180.03;;;29.55;81.90
20156;BME280;10238;49.556;10.956;2023-06-22T09:03:15;98180.66;;;29.42;86.01
20156;BME280;10238;49.556;10.956;2023-06-22T09:06:29;98173.78;;;30.46;87.96
20156;BME280;10238;49.556;10.956;2023-06-22T09:09:37;98174.63;;;30.47;77.90
20156;BME280;10238;49.556;10.956;2023-06-22T09:12:25;98160.91;;;30.42;84.84
20156;BME280;10238;49.556;10.956;2023-06-22T09:15:13;98157.81;;;31.10;84.54
20156;BME280;10238;49.556;10.956;2023-06-22T09:18:13;98151.91;;;31.93;81.99
20156;BME280;10238;49.556;10.956;2023-06-22T09:21:02;98145.22;;;32.17;76.24
20156;BME280;10238;49.556;10.956;2023-06-22T09:23:50;98140.59;;;32.50;71.54
20156;BME280;10238;49.556;10.956;2023-06-22T09:26:39;98129.03;;;32.66;69.24
20156;BME280;10238;49.556;10.956;2023-06-22T09:29:27;98128.13;;;32.02;70.36
20156;BME280;10238;49.556;10.956;2023-06-22T09:32:14;98126.78;;;32.18;79.80
20156;BME280;10238;49.556;10.956;2023-06-22T09:35:09;98120.00;;;32.61;68.45
20156;BME280;10238;49.556;10.956;2023-06-22T09:38:02;98107.38;;;32.92;68.48
20156;BME280;10238;49.556;10.956;2023-06-22T09:40:49;98101.56;;;33.07;63.03
20156;BME280;10238;49.556;10.956;2023-06-22T09:43:38;98117.28;;;33.47;69.84
20156;BME280;10238;49.556;10.956;2023-06-22T09:46:26;98114.03;;;33.45;61.59
20156;BME280;10238;49.556;10.956;2023-06-22T09:49:15;98110.56;;;33.26;56.48
20156;BME280;10238;49.556;10.956;2023-06-22T09:52:03;98094.53;;;33.55;62.14
20156;BME280;10238;49.556;10.956;2023-06-22T09:54:51;98089.28;;;33.67;65.76
20156;BME280;10238;49.556;10.956;2023-06-22T09:57:38;98095.66;;;34.03;62.89
20156;BME280;10238;49.556;10.956;2023-06-22T10:00:27;98096.66;;;33.31;65.44
20156;BME280;10238;49.556;10.956;2023-06-22T10:03:15;98083.41;;;33.82;63.84
20156;BME280;10238;49.556;10.956;2023-06-22T10:06:03;98095.00;;;33.71;66.13
20156;BME280;10238;49.556;10.956;2023-06-22T10:08:51;98104.16;;;33.93;66.03
20156;BME280;10238;49.556;10.956;2023-06-22T10:11:39;98105.09;;;33.89;61.41
20156;BME280;10238;49.556;10.956;2023-06-22T10:14:26;98112.38;;;34.42;63.79
20156;BME280;10238;49.556;10.956;2023-06-22T10:17:17;98090.41;;;35.21;64.27
20156;BME280;10238;49.556;10.956;2023-06-22T10:20:07;98093.22;;;35.94;54.77
20156;BME280;10238;49.556;10.956;2023-06-22T10:22:58;98087.72;;;36.28;52.48
20156;BME280;10238;49.556;10.956;2023-06-22T10:25:46;98104.97;;;36.42;53.42
20156;BME280;10238;49.556;10.956;2023-06-22T10:28:33;98103.31;;;35.98;48.06
20156;BME280;10238;49.556;10.956;2023-06-22T10:31:21;98119.28;;;34.75;54.70
20156;BME280;10238;49.556;10.956;2023-06-22T10:34:10;98115.31;;;34.68;56.42
20156;BME280;10238;49.556;10.956;2023-06-22T10:36:58;98106.19;;;35.29;53.41
20156;BME280;10238;49.556;10.956;2023-06-22T10:39:55;98094.94;;;35.73;53.58
20156;BME280;10238;49.556;10.956;2023-06-22T10:42:43;98095.03;;;35.34;51.02
20156;BME280;10238;49.556;10.956;2023-06-22T10:45:31;98094.38;;;34.45;50.33
20156;BME280;10238;49.556;10.956;2023-06-22T10:48:20;98099.09;;;34.44;53.50
20156;BME280;10238;49.556;10.956;2023-06-22T10:51:09;98094.41;;;34.09;48.66
20156;BME280;10238;49.556;10.956;2023-06-22T10:53:57;98088.91;;;33.60;48.85
20156;BME280;10238;49.556;10.956;2023-06-22T10:56:44;98085.06;;;34.19;48.84
20156;BME280;10238;49.556;10.956;2023-06-22T10:59:32;98080.78;;;33.77;49.85
20156;BME280;10238;49.556;10.956;2023-06-22T11:02:20;98081.41;;;34.54;56.29
20156;BME280;10238;49.556;10.956;2023-06-22T11:05:08;98071.16;;;35.07;52.61
20156;BME280;10238;49.556;10.956;2023-06-22T11:07:57;98064.50;;;35.64;47.29
20156;BME280;10238;49.556;10.956;2023-06-22T11:10:45;98065.75;;;34.71;48.87
20156;BME280;10238;49.556;10.956;2023-06-22T11:13:33;98070.06;;;34.55;49.45
20156;BME280;10238;49.556;10.956;2023-06-22T11:16:21;98064.00;;;34.23;48.83
20156;BME280;10238;49.556;10.956;2023-06-22T11:19:09;98058.63;;;34.04;57.45
20156;BME280;10238;49.556;10.956;2023-06-22T11:21:56;98037.56;;;35.31;55.13
20156;BME280;10238;49.556;10.956;2023-06-22T11:25:08;98025.19;;;36.81;52.51
20156;BME280;10238;49.556;10.956;2023-06-22T11:28:15;98024.59;;;37.05;48.20
20156;BME280;10238;49.556;10.956;2023-06-22T11:31:03;98032.09;;;35.48;45.36
20156;BME280;10238;49.556;10.956;2023-06-22T11:34:10;98025.69;;;35.22;55.72
20156;BME280;10238;49.556;10.956;2023-06-22T11:36:58;98020.38;;;35.59;45.92
20156;BME280;10238;49.556;10.956;2023-06-22T11:39:45;98028.06;;;35.71;50.06
20156;BME280;10238;49.556;10.956;2023-06-22T11:42:40;98027.06;;;35.67;45.10
20156;BME280;10238;49.556;10.956;2023-06-22T11:45:28;98025.59;;;35.44;48.60
20156;BME280;10238;49.556;10.956;2023-06-22T11:48:16;98029.28;;;34.83;49.74
20156;BME280;10238;49.556;10.956;2023-06-22T11:51:03;98021.94;;;34.78;46.18
20156;BME280;10238;49.556;10.956;2023-06-22T11:53:53;98004.19;;;34.71;48.30
20156;BME280;10238;49.556;10.956;2023-06-22T11:56:41;97995.34;;;35.73;46.65
20156;BME280;10238;49.556;10.956;2023-06-22T11:59:42;97990.00;;;35.85;52.39
20156;BME280;10238;49.556;10.956;2023-06-22T12:02:30;97982.63;;;36.69;49.07
20156;BME280;10238;49.556;10.956;2023-06-22T12:05:19;97982.34;;;35.82;43.82
20156;BME280;10238;49.556;10.956;2023-06-22T12:08:08;97988.19;;;35.55;44.36
20156;BME280;10238;49.556;10.956;2023-06-22T12:10:56;97985.44;;;35.80;47.58
20156;BME280;10238;49.556;10.956;2023-06-22T12:13:43;97969.53;;;36.49;43.04
20156;BME280;10238;49.556;10.956;2023-06-22T12:16:32;97967.50;;;36.66;47.06
20156;BME280;10238;49.556;10.956;2023-06-22T12:19:20;97953.25;;;36.85;42.97
20156;BME280;10238;49.556;10.956;2023-06-22T12:22:08;97946.22;;;36.50;42.13
20156;BME280;10238;49.556;10.956;2023-06-22T12:24:55;97941.88;;;36.78;44.35
20156;BME280;10238;49.556;10.956;2023-06-22T12:27:43;97927.41;;;36.18;43.58
20156;BME280;10238;49.556;10.956;2023-06-22T12:30:32;97925.44;;;36.64;44.87
20156;BME280;10238;49.556;10.956;2023-06-22T12:33:21;97921.34;;;36.70;42.36
20156;BME280;10238;49.556;10.956;2023-06-22T12:36:09;97924.72;;;36.47;43.89
20156;BME280;10238;49.556;10.956;2023-06-22T12:38:56;97914.25;;;37.19;47.08
20156;BME280;10238;49.556;10.956;2023-06-22T12:41:44;97911.66;;;37.55;43.34
20156;BME280;10238;49.556;10.956;2023-06-22T12:44:32;97903.47;;;38.68;39.80
20156;BME280;10238;49.556;10.956;2023-06-22T12:47:21;97913.50;;;36.81;39.70
20156;BME280;10238;49.556;10.956;2023-06-22T12:50:10;97915.00;;;36.24;45.20
20156;BME280;10238;49.556;10.956;2023-06-22T12:52:58;97920.09;;;36.22;43.38
20156;BME280;10238;49.556;10.956;2023-06-22T12:55:48;97912.84;;;36.84;46.23
20156;BME280;10238;49.556;10.956;2023-06-22T12:58:36;97907.72;;;37.65;46.72
20156;BME280;10238;49.556;10.956;2023-06-22T13:01:23;97899.34;;;37.03;41.77
20156;BME280;10238;49.556;10.956;2023-06-22T13:04:12;97905.81;;;36.49;42.08
20156;BME280;10238;49.556;10.956;2023-06-22T13:07:03;97897.47;;;36.57;49.73
20156;BME280;10238;49.556;10.956;2023-06-22T13:10:16;97905.75;;;36.28;44.94
20156;BME280;10238;49.556;10.956;2023-06-22T13:13:04;97900.88;;;36.63;41.61
20156;BME280;10238;49.556;10.956;2023-06-22T13:15:51;97913.16;;;35.48;43.97
20156;BME280;10238;49.556;10.956;2023-06-22T13:18:40;97911.88;;;35.71;44.05
20156;BME280;10238;49.556;10.956;2023-06-22T13:21:33;97906.22;;;36.97;48.88
20156;BME280;10238;49.556;10.956;2023-06-22T13:24:23;97907.22;;;37.42;45.29
20156;BME280;10238;49.556;10.956;2023-06-22T13:27:11;97909.03;;;37.59;42.85
20156;BME280;10238;49.556;10.956;2023-06-22T13:29:59;97909.47;;;36.99;40.33
20156;BME280;10238;49.556;10.956;2023-06-22T13:32:46;97904.47;;;37.95;50.54
20156;BME280;10238;49.556;10.956;2023-06-22T13:35:34;97898.31;;;38.46;39.92
20156;BME280;10238;49.556;10.956;2023-06-22T13:38:22;97895.19;;;38.36;43.75
20156;BME280;10238;49.556;10.956;2023-06-22T13:41:33;97910.63;;;36.98;40.69
20156;BME280;10238;49.556;10.956;2023-06-22T13:44:21;97915.66;;;36.38;43.96
20156;BME280;10238;49.556;10.956;2023-06-22T13:47:08;97909.00;;;36.97;48.24
20156;BME280;10238;49.556;10.956;2023-06-22T13:49:56;97910.66;;;37.19;46.68
20156;BME280;10238;49.556;10.956;2023-06-22T13:52:45;97906.00;;;37.72;43.54
20156;BME280;10238;49.556;10.956;2023-06-22T13:55:33;97896.84;;;38.04;44.18
20156;BME280;10238;49.556;10.956;2023-06-22T13:58:22;97899.59;;;37.92;48.19
20156;BME280;10238;49.556;10.956;2023-06-22T14:01:10;97881.63;;;37.57;43.26
20156;BME280;10238;49.556;10.956;2023-06-22T14:04:03;97872.38;;;37.74;46.88
20156;BME280;10238;49.556;10.956;2023-06-22T14:06:51;97870.03;;;38.08;46.83
20156;BME280;10238;49.556;10.956;2023-06-22T14:09:42;97859.66;;;38.29;42.03
20156;BME280;10238;49.556;10.956;2023-06-22T14:12:30;97846.91;;;38.16;41.86
20156;BME280;10238;49.556;10.956;2023-06-22T14:15:19;97840.88;;;38.14;40.07
20156;BME280;10238;49.556;10.956;2023-06-22T14:18:07;97830.91;;;38.01;41.75
20156;BME280;10238;49.556;10.956;2023-06-22T14:20:55;97819.16;;;38.52;44.90
20156;BME280;10238;49.556;10.956;2023-06-22T14:23:43;97826.94;;;38.02;38.81
20156;BME280;10238;49.556;10.956;2023-06-22T14:26:35;97833.53;;;37.12;44.00
20156;BME280;10238;49.556;10.956;2023-06-22T14:29:24;97833.16;;;37.75;48.32
20156;BME280;10238;49.556;10.956;2023-06-22T14:32:15;97823.78;;;38.48;44.78
20156;BME280;10238;49.556;10.956;2023-06-22T14:35:04;97827.16;;;38.54;42.39
20156;BME280;10238;49.556;10.956;2023-06-22T14:37:52;97822.38;;;38.78;46.22
20156;BME280;10238;49.556;10.956;2023-06-22T14:40:39;97825.41;;;39.13;39.48
20156;BME280;10238;49.556;10.956;2023-06-22T14:43:48;97830.47;;;38.47;41.76